sensor_id;sensor_type;location;lat;lon;timestamp;P1;durP1;ratioP1;P2;durP2;ratioP2
50651;SDS011;66928;52.086;5.240;2023-02-22T06:25:42;59.2;;;34.71;;
50651;SDS011;66928;52.086;5.240;2023-02-22T06:27:18;61.7;;;34.81;;
50651;SDS011;66928;52.086;5.240;2023-02-22T06:30:30;64.2;;;35.6;;
50651;SDS011;66928;52.086;5.240;2023-02-22T06:32:06;59.6;;;33.0;;
50651;SDS011;66928;52.086;5.240;2023-02-22T06:33:42;62.4;;;34.0;;
50651;SDS011;66928;52.086;5.240;2023-02-22T06:36:56;53.9;;;31.4;;
50651;SDS011;66928;52.086;5.240;2023-02-22T06:38:32;55.1;;;31.7;;
50651;SDS011;66928;52.086;5.240;2023-02-22T06:40:10;60.7;;;31.9;;
50651;SDS011;66928;52.086;5.240;2023-02-22T06:41:49;58.3;;;32.9;;
50651;SDS011;66928;52.086;5.240;2023-02-22T06:45:02;53.3;;;30.4;;
50651;SDS011;66928;52.086;5.240;2023-02-22T06:46:39;49.7;;;30.4;;
50651;SDS011;66928;52.086;5.240;2023-02-22T06:48:21;49.6;;;30.6;;
50651;SDS011;66928;52.086;5.240;2023-02-22T06:51:34;54.8;;;31.2;;
50651;SDS011;66928;52.086;5.240;2023-02-22T06:53:12;53.1;;;31.2;;
50651;SDS011;66928;52.086;5.240;2023-02-22T06:54:49;52.3;;;30.9;;
50651;SDS011;66928;52.086;5.240;2023-02-22T06:56:26;52.0;;;30.8;;
50651;SDS011;66928;52.086;5.240;2023-02-22T06:59:41;53.5;;;31.5;;
50651;SDS011;66928;52.086;5.240;2023-02-22T07:01:18;57.0;;;32.6;;
50651;SDS011;66928;52.086;5.240;2023-02-22T07:02:54;57.7;;;31.5;;
50651;SDS011;66928;52.086;5.240;2023-02-22T07:06:07;53.2;;;31.6;;
50651;SDS011;66928;52.086;5.240;2023-02-22T07:07:45;54.1;;;32.21;;
50651;SDS011;66928;52.086;5.240;2023-02-22T07:09:23;53.5;;;31.3;;
50651;SDS011;66928;52.086;5.240;2023-02-22T07:11:00;59.1;;;33.6;;
50651;SDS011;66928;52.086;5.240;2023-02-22T07:14:12;59.6;;;34.81;;
50651;SDS011;66928;52.086;5.240;2023-02-22T07:15:52;54.9;;;32.8;;
50651;SDS011;66928;52.086;5.240;2023-02-22T07:17:28;60.7;;;34.71;;
50651;SDS011;66928;52.086;5.240;2023-02-22T07:20:41;52.8;;;31.7;;
50651;SDS011;66928;52.086;5.240;2023-02-22T07:22:18;50.6;;;31.8;;
50651;SDS011;66928;52.086;5.240;2023-02-22T07:23:55;50.0;;;30.4;;
50651;SDS011;66928;52.086;5.240;2023-02-22T07:27:09;52.9;;;31.2;;
50651;SDS011;66928;52.086;5.240;2023-02-22T07:28:46;57.0;;;33.0;;
50651;SDS011;66928;52.086;5.240;2023-02-22T07:30:24;58.2;;;34.5;;
50651;SDS011;66928;52.086;5.240;2023-02-22T07:32:03;52.6;;;32.21;;
50651;SDS011;66928;52.086;5.240;2023-02-22T07:35:18;56.7;;;33.8;;
50651;SDS011;66928;52.086;5.240;2023-02-22T07:36:57;54.4;;;32.0;;
50651;SDS011;66928;52.086;5.240;2023-02-22T07:38:33;54.9;;;32.9;;
50651;SDS011;66928;52.086;5.240;2023-02-22T07:41:47;49.4;;;30.4;;
50651;SDS011;66928;52.086;5.240;2023-02-22T07:43:25;51.5;;;32.5;;
50651;SDS011;66928;52.086;5.240;2023-02-22T07:45:03;47.0;;;30.0;;
50651;SDS011;66928;52.086;5.240;2023-02-22T07:46:40;53.9;;;33.1;;
50651;SDS011;66928;52.086;5.240;2023-02-22T07:49:55;47.8;;;30.9;;
50651;SDS011;66928;52.086;5.240;2023-02-22T07:51:32;46.3;;;29.7;;
50651;SDS011;66928;52.086;5.240;2023-02-22T07:53:11;46.1;;;29.9;;
50651;SDS011;66928;52.086;5.240;2023-02-22T07:56:27;45.5;;;29.6;;
50651;SDS011;66928;52.086;5.240;2023-02-22T07:58:04;49.3;;;30.7;;
50651;SDS011;66928;52.086;5.240;2023-02-22T07:59:44;48.3;;;29.8;;
50651;SDS011;66928;52.086;5.240;2023-02-22T08:01:21;47.9;;;30.1;;
50651;SDS011;66928;52.086;5.240;2023-02-22T08:04:35;48.8;;;32.0;;
50651;SDS011;66928;52.086;5.240;2023-02-22T08:06:11;49.8;;;32.8;;
50651;SDS011;66928;52.086;5.240;2023-02-22T08:07:47;50.6;;;32.9;;
50651;SDS011;66928;52.086;5.240;2023-02-22T08:11:00;52.2;;;32.5;;
50651;SDS011;66928;52.086;5.240;2023-02-22T08:12:37;51.7;;;32.6;;
50651;SDS011;66928;52.086;5.240;2023-02-22T08:14:14;41.2;;;28.0;;
50651;SDS011;66928;52.086;5.240;2023-02-22T08:15:52;41.7;;;27.9;;
50651;SDS011;66928;52.086;5.240;2023-02-22T08:19:05;42.8;;;28.7;;
50651;SDS011;66928;52.086;5.240;2023-02-22T08:20:42;42.6;;;28.0;;
50651;SDS011;66928;52.086;5.240;2023-02-22T08:22:20;39.31;;;27.0;;
50651;SDS011;66928;52.086;5.240;2023-02-22T08:25:34;40.6;;;28.5;;
50651;SDS011;66928;52.086;5.240;2023-02-22T08:27:11;40.81;;;28.3;;
50651;SDS011;66928;52.086;5.240;2023-02-22T08:28:47;38.81;;;27.6;;
50651;SDS011;66928;52.086;5.240;2023-02-22T08:32:00;41.2;;;28.0;;
50651;SDS011;66928;52.086;5.240;2023-02-22T08:33:36;41.7;;;28.5;;
50651;SDS011;66928;52.086;5.240;2023-02-22T08:35:13;42.3;;;27.8;;
50651;SDS011;66928;52.086;5.240;2023-02-22T08:36:51;40.5;;;27.7;;
50651;SDS011;66928;52.086;5.240;2023-02-22T08:40:07;40.4;;;26.4;;
50651;SDS011;66928;52.086;5.240;2023-02-22T08:41:44;42.5;;;29.4;;
50651;SDS011;66928;52.086;5.240;2023-02-22T08:43:21;38.71;;;27.5;;
50651;SDS011;66928;52.086;5.240;2023-02-22T08:46:35;40.71;;;27.9;;
50651;SDS011;66928;52.086;5.240;2023-02-22T08:48:11;35.1;;;25.9;;
50651;SDS011;66928;52.086;5.240;2023-02-22T08:49:48;35.1;;;25.3;;
50651;SDS011;66928;52.086;5.240;2023-02-22T08:51:24;35.0;;;25.3;;
50651;SDS011;66928;52.086;5.240;2023-02-22T08:54:40;38.5;;;26.4;;
50651;SDS011;66928;52.086;5.240;2023-02-22T08:56:16;37.4;;;26.0;;
50651;SDS011;66928;52.086;5.240;2023-02-22T08:57:52;34.6;;;25.0;;
50651;SDS011;66928;52.086;5.240;2023-02-22T09:01:05;35.4;;;25.9;;
50651;SDS011;66928;52.086;5.240;2023-02-22T09:02:41;35.31;;;24.7;;
50651;SDS011;66928;52.086;5.240;2023-02-22T09:04:18;36.5;;;25.6;;
50651;SDS011;66928;52.086;5.240;2023-02-22T09:07:31;34.81;;;25.1;;
50651;SDS011;66928;52.086;5.240;2023-02-22T09:09:08;36.81;;;26.2;;
50651;SDS011;66928;52.086;5.240;2023-02-22T09:10:45;37.0;;;26.1;;
50651;SDS011;66928;52.086;5.240;2023-02-22T09:12:22;35.81;;;24.5;;
50651;SDS011;66928;52.086;5.240;2023-02-22T09:15:35;36.4;;;25.7;;
50651;SDS011;66928;52.086;5.240;2023-02-22T09:17:12;37.1;;;25.5;;
50651;SDS011;66928;52.086;5.240;2023-02-22T09:18:48;36.31;;;25.5;;
50651;SDS011;66928;52.086;5.240;2023-02-22T09:22:03;36.4;;;25.6;;
50651;SDS011;66928;52.086;5.240;2023-02-22T09:23:40;37.1;;;26.1;;
50651;SDS011;66928;52.086;5.240;2023-02-22T09:25:16;37.6;;;26.6;;
50651;SDS011;66928;52.086;5.240;2023-02-22T09:28:29;36.21;;;25.7;;
50651;SDS011;66928;52.086;5.240;2023-02-22T09:30:14;36.0;;;25.0;;
50651;SDS011;66928;52.086;5.240;2023-02-22T09:31:53;35.21;;;25.3;;
50651;SDS011;66928;52.086;5.240;2023-02-22T09:33:31;38.4;;;25.8;;
50651;SDS011;66928;52.086;5.240;2023-02-22T09:36:46;35.6;;;25.1;;
50651;SDS011;66928;52.086;5.240;2023-02-22T09:38:25;37.4;;;26.3;;
50651;SDS011;66928;52.086;5.240;2023-02-22T09:40:01;34.81;;;25.1;;
50651;SDS011;66928;52.086;5.240;2023-02-22T09:41:38;35.81;;;25.5;;
50651;SDS011;66928;52.086;5.240;2023-02-22T09:45:13;35.31;;;25.6;;
50651;SDS011;66928;52.086;5.240;2023-02-22T09:46:56;34.31;;;24.2;;
50651;SDS011;66928;52.086;5.240;2023-02-22T09:48:33;34.5;;;24.2;;
50651;SDS011;66928;52.086;5.240;2023-02-22T09:50:19;34.31;;;25.0;;
50651;SDS011;66928;52.086;5.240;2023-02-22T09:53:42;37.21;;;26.1;;
50651;SDS011;66928;52.086;5.240;2023-02-22T09:55:27;36.9;;;25.9;;
50651;SDS011;66928;52.086;5.240;2023-02-22T09:57:10;35.6;;;25.7;;
50651;SDS011;66928;52.086;5.240;2023-02-22T09:58:53;35.1;;;25.5;;
50651;SDS011;66928;52.086;5.240;2023-02-22T10:00:36;37.5;;;25.4;;
50651;SDS011;66928;52.086;5.240;2023-02-22T10:04:03;35.1;;;25.8;;
50651;SDS011;66928;52.086;5.240;2023-02-22T10:05:48;35.6;;;25.2;;
50651;SDS011;66928;52.086;5.240;2023-02-22T10:07:29;34.1;;;24.9;;
50651;SDS011;66928;52.086;5.240;2023-02-22T10:09:10;37.4;;;25.8;;
50651;SDS011;66928;52.086;5.240;2023-02-22T10:12:47;35.21;;;24.8;;
50651;SDS011;66928;52.086;5.240;2023-02-22T10:14:42;34.4;;;25.0;;
50651;SDS011;66928;52.086;5.240;2023-02-22T10:16:32;35.9;;;26.1;;
50651;SDS011;66928;52.086;5.240;2023-02-22T10:18:36;36.21;;;25.1;;
50651;SDS011;66928;52.086;5.240;2023-02-22T10:20:41;33.5;;;24.4;;
50651;SDS011;66928;52.086;5.240;2023-02-22T10:22:32;33.71;;;23.9;;
50651;SDS011;66928;52.086;5.240;2023-02-22T10:24:23;32.9;;;24.3;;
50651;SDS011;66928;52.086;5.240;2023-02-22T10:26:13;34.81;;;24.0;;
50651;SDS011;66928;52.086;5.240;2023-02-22T10:27:53;34.6;;;24.2;;
50651;SDS011;66928;52.086;5.240;2023-02-22T10:31:18;35.9;;;25.6;;
50651;SDS011;66928;52.086;5.240;2023-02-22T10:33:00;32.8;;;23.8;;
50651;SDS011;66928;52.086;5.240;2023-02-22T10:34:45;34.0;;;24.7;;
50651;SDS011;66928;52.086;5.240;2023-02-22T10:36:26;33.8;;;23.9;;
50651;SDS011;66928;52.086;5.240;2023-02-22T10:39:53;32.9;;;24.4;;
50651;SDS011;66928;52.086;5.240;2023-02-22T10:41:37;33.5;;;23.7;;
50651;SDS011;66928;52.086;5.240;2023-02-22T10:43:22;35.31;;;24.5;;
50651;SDS011;66928;52.086;5.240;2023-02-22T10:44:59;36.31;;;25.1;;
50651;SDS011;66928;52.086;5.240;2023-02-22T10:46:35;33.3;;;24.1;;
50651;SDS011;66928;52.086;5.240;2023-02-22T10:49:55;33.3;;;24.1;;
50651;SDS011;66928;52.086;5.240;2023-02-22T10:51:34;34.6;;;25.0;;
50651;SDS011;66928;52.086;5.240;2023-02-22T10:53:11;35.81;;;24.6;;
50651;SDS011;66928;52.086;5.240;2023-02-22T10:54:49;36.9;;;26.6;;
50651;SDS011;66928;52.086;5.240;2023-02-22T10:58:06;36.0;;;25.6;;
50651;SDS011;66928;52.086;5.240;2023-02-22T10:59:44;34.6;;;24.6;;
50651;SDS011;66928;52.086;5.240;2023-02-22T11:01:23;34.9;;;25.2;;
50651;SDS011;66928;52.086;5.240;2023-02-22T11:04:51;37.4;;;26.0;;
50651;SDS011;66928;52.086;5.240;2023-02-22T11:06:31;35.6;;;24.8;;
50651;SDS011;66928;52.086;5.240;2023-02-22T11:08:13;36.71;;;25.6;;
50651;SDS011;66928;52.086;5.240;2023-02-22T11:09:59;37.71;;;25.0;;
50651;SDS011;66928;52.086;5.240;2023-02-22T11:11:39;35.71;;;25.6;;
50651;SDS011;66928;52.086;5.240;2023-02-22T11:15:23;36.81;;;25.7;;
50651;SDS011;66928;52.086;5.240;2023-02-22T11:17:05;37.4;;;26.0;;
50651;SDS011;66928;52.086;5.240;2023-02-22T11:18:44;38.4;;;26.2;;
50651;SDS011;66928;52.086;5.240;2023-02-22T11:20:25;38.1;;;26.4;;
50651;SDS011;66928;52.086;5.240;2023-02-22T11:22:09;38.81;;;25.4;;
50651;SDS011;66928;52.086;5.240;2023-02-22T11:25:38;39.1;;;26.7;;
50651;SDS011;66928;52.086;5.240;2023-02-22T11:27:26;38.5;;;26.5;;
50651;SDS011;66928;52.086;5.240;2023-02-22T11:29:11;41.9;;;27.5;;
50651;SDS011;66928;52.086;5.240;2023-02-22T11:30:54;37.5;;;26.0;;
50651;SDS011;66928;52.086;5.240;2023-02-22T11:32:32;37.1;;;26.1;;
50651;SDS011;66928;52.086;5.240;2023-02-22T11:36:05;39.31;;;26.6;;
50651;SDS011;66928;52.086;5.240;2023-02-22T11:37:44;37.81;;;25.6;;
50651;SDS011;66928;52.086;5.240;2023-02-22T11:39:22;37.5;;;25.7;;
50651;SDS011;66928;52.086;5.240;2023-02-22T11:41:05;38.71;;;25.7;;
50651;SDS011;66928;52.086;5.240;2023-02-22T11:44:26;38.6;;;25.5;;
50651;SDS011;66928;52.086;5.240;2023-02-22T11:46:05;41.0;;;26.9;;
50651;SDS011;66928;52.086;5.240;2023-02-22T11:47:48;39.1;;;26.5;;
50651;SDS011;66928;52.086;5.240;2023-02-22T11:49:31;37.71;;;25.3;;
50651;SDS011;66928;52.086;5.240;2023-02-22T11:53:06;36.6;;;25.2;;
50651;SDS011;66928;52.086;5.240;2023-02-22T11:55:12;37.81;;;25.7;;
50651;SDS011;66928;52.086;5.240;2023-02-22T11:56:57;38.21;;;26.5;;
50651;SDS011;66928;52.086;5.240;2023-02-22T11:58:47;37.1;;;25.8;;
50651;SDS011;66928;52.086;5.240;2023-02-22T12:00:33;37.6;;;25.6;;
50651;SDS011;66928;52.086;5.240;2023-02-22T12:02:28;35.71;;;25.5;;
50651;SDS011;66928;52.086;5.240;2023-02-22T12:04:30;34.9;;;24.6;;
50651;SDS011;66928;52.086;5.240;2023-02-22T12:06:26;37.21;;;25.1;;
50651;SDS011;66928;52.086;5.240;2023-02-22T12:08:18;36.6;;;25.5;;
50651;SDS011;66928;52.086;5.240;2023-02-22T12:11:59;35.0;;;24.9;;
50651;SDS011;66928;52.086;5.240;2023-02-22T12:13:51;34.21;;;24.6;;
50651;SDS011;66928;52.086;5.240;2023-02-22T12:15:42;37.0;;;24.2;;
50651;SDS011;66928;52.086;5.240;2023-02-22T12:17:32;36.31;;;25.3;;
50651;SDS011;66928;52.086;5.240;2023-02-22T12:19:29;34.1;;;25.2;;
50651;SDS011;66928;52.086;5.240;2023-02-22T12:21:11;34.1;;;23.9;;
50651;SDS011;66928;52.086;5.240;2023-02-22T12:22:55;36.81;;;24.5;;
50651;SDS011;66928;52.086;5.240;2023-02-22T12:26:22;32.8;;;24.4;;
50651;SDS011;66928;52.086;5.240;2023-02-22T12:28:09;34.1;;;24.2;;
50651;SDS011;66928;52.086;5.240;2023-02-22T12:29:57;32.9;;;23.8;;
50651;SDS011;66928;52.086;5.240;2023-02-22T12:31:39;32.0;;;23.0;;
50651;SDS011;66928;52.086;5.240;2023-02-22T12:33:20;34.71;;;24.0;;
50651;SDS011;66928;52.086;5.240;2023-02-22T12:36:50;33.0;;;23.7;;
50651;SDS011;66928;52.086;5.240;2023-02-22T12:38:33;30.5;;;22.0;;
50651;SDS011;66928;52.086;5.240;2023-02-22T12:40:15;29.1;;;22.2;;
50651;SDS011;66928;52.086;5.240;2023-02-22T12:41:59;31.7;;;22.9;;
50651;SDS011;66928;52.086;5.240;2023-02-22T12:43:41;32.0;;;22.3;;
50651;SDS011;66928;52.086;5.240;2023-02-22T12:47:09;31.8;;;22.2;;
50651;SDS011;66928;52.086;5.240;2023-02-22T12:48:53;30.6;;;23.0;;
50651;SDS011;66928;52.086;5.240;2023-02-22T12:50:38;28.0;;;21.6;;
50651;SDS011;66928;52.086;5.240;2023-02-22T12:52:20;29.9;;;22.3;;
50651;SDS011;66928;52.086;5.240;2023-02-22T12:54:15;30.6;;;22.7;;
50651;SDS011;66928;52.086;5.240;2023-02-22T12:57:57;29.6;;;22.4;;
50651;SDS011;66928;52.086;5.240;2023-02-22T12:59:44;29.1;;;22.1;;
50651;SDS011;66928;52.086;5.240;2023-02-22T13:01:26;28.5;;;21.8;;
50651;SDS011;66928;52.086;5.240;2023-02-22T13:03:19;27.2;;;21.3;;
50651;SDS011;66928;52.086;5.240;2023-02-22T13:05:05;27.2;;;21.5;;
50651;SDS011;66928;52.086;5.240;2023-02-22T13:06:50;29.1;;;21.7;;
50651;SDS011;66928;52.086;5.240;2023-02-22T13:08:44;29.4;;;21.9;;
50651;SDS011;66928;52.086;5.240;2023-02-22T13:12:32;27.4;;;20.2;;
50651;SDS011;66928;52.086;5.240;2023-02-22T13:14:24;28.3;;;20.5;;
50651;SDS011;66928;52.086;5.240;2023-02-22T13:16:19;26.8;;;20.8;;
50651;SDS011;66928;52.086;5.240;2023-02-22T13:18:11;27.5;;;21.3;;
50651;SDS011;66928;52.086;5.240;2023-02-22T13:19:56;27.9;;;20.6;;
50651;SDS011;66928;52.086;5.240;2023-02-22T13:21:40;26.6;;;20.41;;
50651;SDS011;66928;52.086;5.240;2023-02-22T13:23:29;26.1;;;20.41;;
50651;SDS011;66928;52.086;5.240;2023-02-22T13:27:02;25.4;;;19.91;;
50651;SDS011;66928;52.086;5.240;2023-02-22T13:28:46;28.5;;;21.7;;
50651;SDS011;66928;52.086;5.240;2023-02-22T13:30:33;27.6;;;21.8;;
50651;SDS011;66928;52.086;5.240;2023-02-22T13:32:21;26.5;;;20.0;;
50651;SDS011;66928;52.086;5.240;2023-02-22T13:34:13;26.7;;;20.2;;
50651;SDS011;66928;52.086;5.240;2023-02-22T13:37:21;29.9;;;21.4;;
50651;SDS011;66928;52.086;5.240;2023-02-22T13:39:22;26.8;;;22.4;;
50651;SDS011;66928;52.086;5.240;2023-02-22T13:42:52;27.9;;;21.9;;
50651;SDS011;66928;52.086;5.240;2023-02-22T13:44:54;27.7;;;21.2;;
50651;SDS011;66928;52.086;5.240;2023-02-22T13:48:14;26.3;;;20.8;;
50651;SDS011;66928;52.086;5.240;2023-02-22T13:51:48;28.2;;;21.1;;
50651;SDS011;66928;52.086;5.240;2023-02-22T13:53:27;29.2;;;21.7;;
50651;SDS011;66928;52.086;5.240;2023-02-22T13:55:16;28.2;;;22.0;;
50651;SDS011;66928;52.086;5.240;2023-02-22T13:56:55;26.9;;;20.3;;
50651;SDS011;66928;52.086;5.240;2023-02-22T14:00:37;26.3;;;21.1;;
50651;SDS011;66928;52.086;5.240;2023-02-22T14:02:55;27.6;;;20.8;;
50651;SDS011;66928;52.086;5.240;2023-02-22T14:04:38;27.6;;;21.1;;
50651;SDS011;66928;52.086;5.240;2023-02-22T14:06:35;27.4;;;20.7;;
50651;SDS011;66928;52.086;5.240;2023-02-22T14:08:37;28.7;;;20.9;;
50651;SDS011;66928;52.086;5.240;2023-02-22T14:10:46;26.1;;;20.6;;
50651;SDS011;66928;52.086;5.240;2023-02-22T14:12:46;25.6;;;20.3;;
50651;SDS011;66928;52.086;5.240;2023-02-22T14:14:25;27.5;;;20.2;;
50651;SDS011;66928;52.086;5.240;2023-02-22T14:16:18;25.2;;;20.11;;
50651;SDS011;66928;52.086;5.240;2023-02-22T14:17:59;25.0;;;19.8;;
50651;SDS011;66928;52.086;5.240;2023-02-22T14:21:15;25.4;;;19.7;;
50651;SDS011;66928;52.086;5.240;2023-02-22T14:22:53;25.1;;;20.3;;
50651;SDS011;66928;52.086;5.240;2023-02-22T14:24:29;27.1;;;20.7;;
50651;SDS011;66928;52.086;5.240;2023-02-22T14:26:21;25.8;;;20.41;;
50651;SDS011;66928;52.086;5.240;2023-02-22T14:29:47;25.1;;;19.41;;
50651;SDS011;66928;52.086;5.240;2023-02-22T14:31:30;27.2;;;20.5;;
50651;SDS011;66928;52.086;5.240;2023-02-22T14:34:13;24.9;;;19.41;;
50651;SDS011;66928;52.086;5.240;2023-02-22T14:35:51;24.7;;;19.61;;
50651;SDS011;66928;52.086;5.240;2023-02-22T14:37:29;23.9;;;19.0;;
50651;SDS011;66928;52.086;5.240;2023-02-22T14:39:15;25.2;;;18.61;;
50651;SDS011;66928;52.086;5.240;2023-02-22T14:40:55;23.2;;;19.11;;
50651;SDS011;66928;52.086;5.240;2023-02-22T14:44:19;25.0;;;19.61;;
50651;SDS011;66928;52.086;5.240;2023-02-22T14:46:04;24.1;;;18.91;;
50651;SDS011;66928;52.086;5.240;2023-02-22T14:47:49;24.6;;;18.7;;
50651;SDS011;66928;52.086;5.240;2023-02-22T14:49:35;24.0;;;18.3;;
50651;SDS011;66928;52.086;5.240;2023-02-22T14:51:18;22.3;;;18.5;;
50651;SDS011;66928;52.086;5.240;2023-02-22T14:54:45;23.2;;;18.2;;
50651;SDS011;66928;52.086;5.240;2023-02-22T14:56:36;23.2;;;19.11;;
50651;SDS011;66928;52.086;5.240;2023-02-22T14:58:18;23.4;;;18.5;;
50651;SDS011;66928;52.086;5.240;2023-02-22T15:00:00;22.3;;;18.61;;
50651;SDS011;66928;52.086;5.240;2023-02-22T15:01:47;22.0;;;18.5;;
50651;SDS011;66928;52.086;5.240;2023-02-22T15:05:04;21.2;;;18.3;;
50651;SDS011;66928;52.086;5.240;2023-02-22T15:06:41;23.0;;;18.5;;
50651;SDS011;66928;52.086;5.240;2023-02-22T15:08:26;22.6;;;19.11;;
50651;SDS011;66928;52.086;5.240;2023-02-22T15:10:04;23.4;;;19.7;;
50651;SDS011;66928;52.086;5.240;2023-02-22T15:13:31;20.41;;;18.2;;
50651;SDS011;66928;52.086;5.240;2023-02-22T15:15:15;22.1;;;18.41;;
50651;SDS011;66928;52.086;5.240;2023-02-22T15:16:54;22.4;;;19.0;;
50651;SDS011;66928;52.086;5.240;2023-02-22T15:18:36;23.5;;;18.91;;
50651;SDS011;66928;52.086;5.240;2023-02-22T15:21:57;23.3;;;18.5;;
50651;SDS011;66928;52.086;5.240;2023-02-22T15:23:38;24.1;;;18.3;;
50651;SDS011;66928;52.086;5.240;2023-02-22T15:25:22;22.7;;;18.3;;
50651;SDS011;66928;52.086;5.240;2023-02-22T15:27:02;24.3;;;18.5;;
50651;SDS011;66928;52.086;5.240;2023-02-22T15:30:19;22.3;;;18.41;;
50651;SDS011;66928;52.086;5.240;2023-02-22T15:33:37;21.7;;;18.41;;
50651;SDS011;66928;52.086;5.240;2023-02-22T15:35:14;23.7;;;19.41;;
50651;SDS011;66928;52.086;5.240;2023-02-22T15:38:50;21.2;;;18.91;;
50651;SDS011;66928;52.086;5.240;2023-02-22T15:40:32;22.7;;;19.11;;
50651;SDS011;66928;52.086;5.240;2023-02-22T15:42:10;23.1;;;19.2;;
50651;SDS011;66928;52.086;5.240;2023-02-22T15:43:56;21.7;;;19.3;;
50651;SDS011;66928;52.086;5.240;2023-02-22T15:45:42;21.8;;;18.91;;
50651;SDS011;66928;52.086;5.240;2023-02-22T15:49:03;25.2;;;20.3;;
50651;SDS011;66928;52.086;5.240;2023-02-22T15:51:01;22.9;;;18.7;;
50651;SDS011;66928;52.086;5.240;2023-02-22T15:52:48;22.9;;;19.0;;
50651;SDS011;66928;52.086;5.240;2023-02-22T15:54:35;26.7;;;19.5;;
50651;SDS011;66928;52.086;5.240;2023-02-22T15:56:15;24.7;;;20.9;;
50651;SDS011;66928;52.086;5.240;2023-02-22T15:59:40;24.9;;;19.2;;
50651;SDS011;66928;52.086;5.240;2023-02-22T16:01:20;24.7;;;19.61;;
50651;SDS011;66928;52.086;5.240;2023-02-22T16:02:56;23.1;;;19.3;;
50651;SDS011;66928;52.086;5.240;2023-02-22T16:04:32;23.6;;;19.8;;
50651;SDS011;66928;52.086;5.240;2023-02-22T16:07:49;22.6;;;19.5;;
50651;SDS011;66928;52.086;5.240;2023-02-22T16:09:29;24.9;;;20.41;;
50651;SDS011;66928;52.086;5.240;2023-02-22T16:11:14;24.9;;;21.2;;
50651;SDS011;66928;52.086;5.240;2023-02-22T16:13:06;23.5;;;20.5;;
50651;SDS011;66928;52.086;5.240;2023-02-22T16:16:23;26.2;;;20.0;;
50651;SDS011;66928;52.086;5.240;2023-02-22T16:18:35;23.3;;;20.6;;
50651;SDS011;66928;52.086;5.240;2023-02-22T16:20:32;23.2;;;20.7;;
50651;SDS011;66928;52.086;5.240;2023-02-22T16:22:22;25.0;;;21.1;;
50651;SDS011;66928;52.086;5.240;2023-02-22T16:24:03;24.3;;;21.0;;
50651;SDS011;66928;52.086;5.240;2023-02-22T16:25:39;26.4;;;21.5;;
50651;SDS011;66928;52.086;5.240;2023-02-22T16:28:57;26.3;;;21.7;;
50651;SDS011;66928;52.086;5.240;2023-02-22T16:30:36;24.7;;;21.7;;
50651;SDS011;66928;52.086;5.240;2023-02-22T16:32:16;28.6;;;23.5;;
50651;SDS011;66928;52.086;5.240;2023-02-22T16:33:54;25.5;;;21.5;;
50651;SDS011;66928;52.086;5.240;2023-02-22T16:37:18;24.6;;;20.8;;
50651;SDS011;66928;52.086;5.240;2023-02-22T16:38:58;24.8;;;20.9;;
50651;SDS011;66928;52.086;5.240;2023-02-22T16:40:37;26.4;;;21.6;;
50651;SDS011;66928;52.086;5.240;2023-02-22T16:42:23;24.1;;;21.4;;
50651;SDS011;66928;52.086;5.240;2023-02-22T16:45:37;27.2;;;22.4;;
50651;SDS011;66928;52.086;5.240;2023-02-22T16:47:16;26.2;;;21.9;;
50651;SDS011;66928;52.086;5.240;2023-02-22T16:48:54;24.8;;;21.6;;
50651;SDS011;66928;52.086;5.240;2023-02-22T16:50:32;26.4;;;22.6;;
50651;SDS011;66928;52.086;5.240;2023-02-22T16:53:49;25.9;;;23.1;;
50651;SDS011;66928;52.086;5.240;2023-02-22T16:55:29;29.2;;;23.7;;
50651;SDS011;66928;52.086;5.240;2023-02-22T16:57:09;29.5;;;24.3;;
50651;SDS011;66928;52.086;5.240;2023-02-22T16:58:54;29.5;;;24.5;;
50651;SDS011;66928;52.086;5.240;2023-02-22T17:02:11;28.5;;;24.6;;
50651;SDS011;66928;52.086;5.240;2023-02-22T17:03:52;32.71;;;27.5;;
50651;SDS011;66928;52.086;5.240;2023-02-22T17:05:29;30.7;;;27.4;;
50651;SDS011;66928;52.086;5.240;2023-02-22T17:08:50;31.5;;;27.4;;
50651;SDS011;66928;52.086;5.240;2023-02-22T17:10:28;33.0;;;28.1;;
50651;SDS011;66928;52.086;5.240;2023-02-22T17:12:04;34.4;;;29.2;;
50651;SDS011;66928;52.086;5.240;2023-02-22T17:13:44;34.1;;;30.2;;
50651;SDS011;66928;52.086;5.240;2023-02-22T17:17:04;35.9;;;31.6;;
50651;SDS011;66928;52.086;5.240;2023-02-22T17:18:42;37.71;;;31.3;;
50651;SDS011;66928;52.086;5.240;2023-02-22T17:20:29;38.4;;;33.3;;
50651;SDS011;66928;52.086;5.240;2023-02-22T17:22:09;36.81;;;32.21;;
50651;SDS011;66928;52.086;5.240;2023-02-22T17:25:32;38.71;;;33.1;;
50651;SDS011;66928;52.086;5.240;2023-02-22T17:27:14;42.4;;;34.81;;
50651;SDS011;66928;52.086;5.240;2023-02-22T17:28:52;39.1;;;34.5;;
50651;SDS011;66928;52.086;5.240;2023-02-22T17:30:31;37.81;;;33.8;;
50651;SDS011;66928;52.086;5.240;2023-02-22T17:33:50;43.7;;;36.21;;
50651;SDS011;66928;52.086;5.240;2023-02-22T17:35:30;44.0;;;37.1;;
50651;SDS011;66928;52.086;5.240;2023-02-22T17:37:08;42.3;;;36.71;;
50651;SDS011;66928;52.086;5.240;2023-02-22T17:38:48;42.5;;;36.81;;
50651;SDS011;66928;52.086;5.240;2023-02-22T17:42:03;46.7;;;38.1;;
50651;SDS011;66928;52.086;5.240;2023-02-22T17:43:41;46.4;;;37.9;;
50651;SDS011;66928;52.086;5.240;2023-02-22T17:45:20;43.7;;;37.1;;
50651;SDS011;66928;52.086;5.240;2023-02-22T17:46:57;43.7;;;37.1;;
50651;SDS011;66928;52.086;5.240;2023-02-22T17:50:14;42.6;;;37.4;;
50651;SDS011;66928;52.086;5.240;2023-02-22T17:51:53;42.5;;;36.6;;
50651;SDS011;66928;52.086;5.240;2023-02-22T17:53:30;46.0;;;37.71;;
50651;SDS011;66928;52.086;5.240;2023-02-22T17:56:47;44.7;;;38.4;;
50651;SDS011;66928;52.086;5.240;2023-02-22T17:58:29;43.7;;;37.4;;
50651;SDS011;66928;52.086;5.240;2023-02-22T18:00:12;45.2;;;37.6;;
50651;SDS011;66928;52.086;5.240;2023-02-22T18:01:53;48.1;;;39.31;;
50651;SDS011;66928;52.086;5.240;2023-02-22T18:05:09;45.7;;;39.31;;
50651;SDS011;66928;52.086;5.240;2023-02-22T18:06:51;51.3;;;41.7;;
50651;SDS011;66928;52.086;5.240;2023-02-22T18:08:29;53.1;;;44.0;;
50651;SDS011;66928;52.086;5.240;2023-02-22T18:10:10;56.6;;;43.6;;
50651;SDS011;66928;52.086;5.240;2023-02-22T18:13:27;54.7;;;43.5;;
50651;SDS011;66928;52.086;5.240;2023-02-22T18:15:06;57.5;;;45.8;;
50651;SDS011;66928;52.086;5.240;2023-02-22T18:16:46;63.9;;;46.9;;
50651;SDS011;66928;52.086;5.240;2023-02-22T18:18:24;60.0;;;47.1;;
50651;SDS011;66928;52.086;5.240;2023-02-22T18:21:49;62.6;;;48.5;;
50651;SDS011;66928;52.086;5.240;2023-02-22T18:23:28;60.4;;;47.1;;
50651;SDS011;66928;52.086;5.240;2023-02-22T18:25:08;65.1;;;48.5;;
50651;SDS011;66928;52.086;5.240;2023-02-22T18:26:46;64.7;;;48.0;;
50651;SDS011;66928;52.086;5.240;2023-02-22T18:30:04;67.5;;;50.7;;
50651;SDS011;66928;52.086;5.240;2023-02-22T18:31:44;64.3;;;50.1;;
50651;SDS011;66928;52.086;5.240;2023-02-22T18:33:23;66.1;;;50.0;;
50651;SDS011;66928;52.086;5.240;2023-02-22T18:36:39;71.91;;;52.6;;
50651;SDS011;66928;52.086;5.240;2023-02-22T18:38:22;71.0;;;52.5;;
50651;SDS011;66928;52.086;5.240;2023-02-22T18:40:00;67.0;;;50.9;;
50651;SDS011;66928;52.086;5.240;2023-02-22T18:41:38;66.2;;;51.3;;
50651;SDS011;66928;52.086;5.240;2023-02-22T18:44:53;67.8;;;51.2;;
50651;SDS011;66928;52.086;5.240;2023-02-22T18:46:31;68.91;;;52.0;;
50651;SDS011;66928;52.086;5.240;2023-02-22T18:48:09;72.91;;;53.1;;
50651;SDS011;66928;52.086;5.240;2023-02-22T18:49:47;69.3;;;53.5;;
50651;SDS011;66928;52.086;5.240;2023-02-22T18:53:02;66.41;;;52.5;;
50651;SDS011;66928;52.086;5.240;2023-02-22T18:54:41;72.3;;;55.0;;
50651;SDS011;66928;52.086;5.240;2023-02-22T18:56:20;70.7;;;53.4;;
50651;SDS011;66928;52.086;5.240;2023-02-22T18:59:37;69.3;;;52.7;;
50651;SDS011;66928;52.086;5.240;2023-02-22T19:01:14;71.2;;;53.9;;
50651;SDS011;66928;52.086;5.240;2023-02-22T19:02:57;78.5;;;56.8;;